Centerville, MA (02632)

10:57 PM EDT on March 26, 2015 (GMT -0400)
KMACENTE2 | | Change Station
CLOSE
Current Station
Personal Weather Station
Location: Centerville, MA
Elevation: 80 ft
Nearby Weather Stations
Active Advisory: Dense Fog Advisory

Elev 80 ft 41.68 °N, 70.37 °W | Updated 40 seconds ago

Rain
Rain
49.5 °F
Feels Like 45 °F
N
13.0
Wind Variable Wind from NW
Gusts 23.0 mph

Today
High -- | Low -- °F
--% Chance of Precip.
Yesterday
High -- | Low -- °F
Precip. -- in
6:34 AM 6:59 PM
Waxing Crescent, 48% visible
Pressure 29.62 in
Visibility 0.8 miles
Clouds
Windchill 45 °F
Dew Point 48 °F
Humidity 93%
Rainfall 0.44 in
Snow Depth Not available.
UV Not available.
Pollen .90 out of 12
Air Quality Not available.
Flu Activity Not available.
SPECI KHYA 270230Z AUTO 21014G23KT 3/4SM -RA BR VV002 08/08 A2962 RMK AO2 PK WND 22028/0159 P0003 T00780078

More Conditions Fewer Conditions

Pressure 29.62 in
Visibility 0.8 miles
Clouds
Windchill 45 °F
Dew Point 48 °F
Humidity 93%
Rainfall 0.44 in
Snow Depth Not available.
UV Not available.
Pollen .90 out of 12
Air Quality Not available.
Flu Activity Not available.
SPECI KHYA 270230Z AUTO 21014G23KT 3/4SM -RA BR VV002 08/08 A2962 RMK AO2 PK WND 22028/0159 P0003 T00780078

More Conditions Fewer Conditions

10-Day Weather Forecast

Almanac

Astronomy

Mar. 26, 2015 Rise Set
Actual Time
Civil Twilight
Nautical Twilight
Astronomical Twilight
Moon
Length of Visible Light
Length of Day
Tomorrow will be .
, % of the Moon is Illuminated

Today's Extremes

State Highs State Lows

Community

WunderPhotos

Upload Photos

1,808,689 photos uploaded!

WunderBlogs® & News

Nearby

Air Quality

  Air Quality AQ Index Pollutant
Not available.

Snow Depth

Station Depth Elevation

Earthquake Activity

City Distance Mag. Time & Date
Minimum magnitude displayed is 2.5.

Coastal Water Temperatures

Place Temperature

Stations

Nearby Weather Stations

Station Location Temp. Windchill Dew Point Humidity Wind Precip. Elev Updated Type
                   
Dense Fog Advisory
Statement as of 3:10 PM EDT on March 26, 2015

... Dense fog advisory in effect until midnight EDT tonight...

The National Weather Service in Taunton has issued a dense fog
advisory... which is in effect until midnight EDT tonight.

* Locations... the South Coast including Cape Cod and the islands.

* Visibilities... one quarter of a mile or less at times.

* Timing... through midnight.

* Impacts... hazardous driving conditions with dense fog resulting
in poor visibility at times. Motorists are advised to slow down
as objects on and near roadways will be see only at close range.

Precautionary/preparedness actions...

A dense fog advisory is issued when dense fog will reduce
visibilities to one quarter mile or less for at least 3 hours...
resulting in hazardous driving conditions. Motorists are advised
to slow down as objects on and near roadways will be seen only at
close range.